createdAt,value
2022-09-05T00:01:42.810Z,2.70
2022-09-05T00:06:02.498Z,4.80
2022-09-05T00:10:20.600Z,2.97
2022-09-05T00:15:14.952Z,3.40
2022-09-05T00:24:20.306Z,3.97
2022-09-05T00:24:25.765Z,3.50
2022-09-05T00:28:26.037Z,3.40
2022-09-05T00:32:44.982Z,2.30
2022-09-05T00:36:49.383Z,2.10
2022-09-05T00:40:54.588Z,2.30
2022-09-05T00:45:01.856Z,2.37
2022-09-05T00:49:15.039Z,1.90
2022-09-05T00:53:22.533Z,2.10
2022-09-05T00:57:39.260Z,2.37
2022-09-05T01:01:51.064Z,2.70
2022-09-05T01:06:16.860Z,4.20
2022-09-05T01:10:28.491Z,3.27
2022-09-05T01:14:44.023Z,2.83
2022-09-05T01:18:57.188Z,2.50
2022-09-05T01:23:19.010Z,2.70
2022-09-05T01:29:13.054Z,2.33
2022-09-05T01:32:30.556Z,2.47
2022-09-05T01:36:46.456Z,2.00
2022-09-05T01:41:17.935Z,2.10
2022-09-05T01:45:38.708Z,2.07
2022-09-05T01:49:53.780Z,1.90
2022-09-05T01:54:23.549Z,1.90
2022-09-05T01:58:44.140Z,1.80
2022-09-05T02:02:58.810Z,1.90
2022-09-05T02:07:30.530Z,1.90
2022-09-05T02:11:53.480Z,1.80
2022-09-05T02:16:05.998Z,2.03
2022-09-05T02:20:23.613Z,1.97
2022-09-05T02:24:33.218Z,2.20
2022-09-05T02:28:44.401Z,2.80
2022-09-05T02:33:02.963Z,5.13
2022-09-05T02:37:11.732Z,7.10
2022-09-05T02:45:20.403Z,7.70
2022-09-05T02:45:54.757Z,7.97
2022-09-05T02:53:41.246Z,6.43
2022-09-05T02:57:35.596Z,6.97
2022-09-05T02:59:36.160Z,5.50
2022-09-05T03:03:45.029Z,5.50
2022-09-05T03:08:11.848Z,6.40
2022-09-05T03:12:47.204Z,5.57
2022-09-05T03:17:28.131Z,6.27
2022-09-05T03:21:55.508Z,5.57
2022-09-05T03:26:19.427Z,5.80
2022-09-05T03:30:22.984Z,6.43
2022-09-05T03:34:56.104Z,6.37
2022-09-05T03:39:37.700Z,4.87
2022-09-05T03:44:04.487Z,4.47
2022-09-05T03:48:29.044Z,4.23
2022-09-05T03:57:16.235Z,4.90
2022-09-05T03:57:38.485Z,4.73
2022-09-05T04:05:00.969Z,3.20
2022-09-05T04:08:19.556Z,2.80
2022-09-05T04:10:52.228Z,2.60
2022-09-05T04:14:59.589Z,2.60
2022-09-05T04:19:13.481Z,2.33
2022-09-05T04:23:28.147Z,2.30
2022-09-05T04:27:38.528Z,2.40
2022-09-05T04:31:48.930Z,2.60
2022-09-05T04:36:17.758Z,2.00
2022-09-05T04:40:37.960Z,2.30
2022-09-05T04:44:43.915Z,2.67
2022-09-05T04:48:54.759Z,2.57
2022-09-05T04:53:10.548Z,2.80
2022-09-05T04:57:24.511Z,2.70
2022-09-05T05:05:59.627Z,2.80
2022-09-05T05:06:12.590Z,2.70
2022-09-05T05:10:55.393Z,3.17
2022-09-05T05:18:07.466Z,4.53
2022-09-05T05:19:22.510Z,5.40
2022-09-05T05:23:35.767Z,5.70
2022-09-05T05:27:44.999Z,6.13
2022-09-05T05:31:51.061Z,6.37
2022-09-05T05:35:55.459Z,6.23
2022-09-05T05:40:04.927Z,5.67
2022-09-05T05:44:13.116Z,5.80
2022-09-05T05:48:31.589Z,5.77
2022-09-05T05:53:07.222Z,6.30
2022-09-05T05:57:31.776Z,5.43
2022-09-05T06:02:04.736Z,5.47
2022-09-05T06:06:31.909Z,5.50
2022-09-05T06:14:55.725Z,5.20
2022-09-05T06:16:13.015Z,5.50
2022-09-05T06:22:07.050Z,5.07
2022-09-05T06:25:33.582Z,5.20
2022-09-05T06:29:51.434Z,4.83
2022-09-05T06:34:08.038Z,5.03
2022-09-05T06:38:49.690Z,5.00
2022-09-05T06:43:04.678Z,4.73
2022-09-05T06:47:23.678Z,4.70
2022-09-05T06:52:17.923Z,4.10
2022-09-05T06:56:40.093Z,4.20
2022-09-05T07:00:47.559Z,4.40
2022-09-05T07:05:37.721Z,3.60
2022-09-05T07:09:29.014Z,3.60
2022-09-05T07:13:34.732Z,3.67
2022-09-05T07:18:09.925Z,3.77
2022-09-05T07:22:46.143Z,3.70
2022-09-05T07:26:54.230Z,3.23
2022-09-05T07:31:03.267Z,3.75
2022-09-05T07:35:12.191Z,3.28
2022-09-05T07:39:28.775Z,3.28
2022-09-05T07:43:36.104Z,3.63
2022-09-05T07:47:42.103Z,7.88
2022-09-05T07:56:50.532Z,6.32
2022-09-05T07:57:06.014Z,3.92
2022-09-05T08:00:37.349Z,3.20
2022-09-05T08:04:41.175Z,2.70
2022-09-05T08:09:21.662Z,2.90
2022-09-05T08:13:24.119Z,2.75
2022-09-05T08:17:30.381Z,2.60
2022-09-05T08:21:39.982Z,2.28
2022-09-05T08:25:56.792Z,2.17
2022-09-05T08:30:26.871Z,2.08
2022-09-05T08:34:44.780Z,2.10
2022-09-05T08:38:47.096Z,2.20
2022-09-05T08:44:19.551Z,1.85
2022-09-05T08:47:31.950Z,2.40
2022-09-05T08:51:54.232Z,1.90
2022-09-05T08:56:01.467Z,1.88
2022-09-05T09:00:20.638Z,2.05
2022-09-05T09:05:02.081Z,2.30
2022-09-05T09:09:13.493Z,2.08
2022-09-05T09:13:35.175Z,2.10
2022-09-05T09:17:42.586Z,2.10
2022-09-05T09:21:56.584Z,2.08
2022-09-05T09:26:09.826Z,2.67
2022-09-05T09:30:13.296Z,2.30
2022-09-05T09:34:39.622Z,2.45
2022-09-05T09:38:57.087Z,2.22
2022-09-05T09:43:21.783Z,1.90
2022-09-05T09:47:39.805Z,1.83
2022-09-05T09:52:08.571Z,1.80
2022-09-05T09:57:02.453Z,1.88
2022-09-05T10:01:35.126Z,1.80
2022-09-05T10:10:40.491Z,2.88
2022-09-05T10:11:07.180Z,2.60
2022-09-05T10:15:32.389Z,1.67
2022-09-05T10:20:10.608Z,2.13
2022-09-05T10:24:49.874Z,1.58
2022-09-05T10:29:34.035Z,1.70
2022-09-05T10:35:13.147Z,1.70
2022-09-05T10:38:10.096Z,2.38
2022-09-05T10:42:15.893Z,1.80
2022-09-05T10:46:51.297Z,2.30
2022-09-05T10:51:00.189Z,2.10
2022-09-05T10:55:21.101Z,1.73
2022-09-05T10:59:59.828Z,1.80
2022-09-05T11:03:55.835Z,1.88
2022-09-05T11:08:06.645Z,1.70
2022-09-05T11:12:25.065Z,1.95
2022-09-05T11:16:34.379Z,2.00
2022-09-05T11:20:49.841Z,1.80
2022-09-05T11:24:55.189Z,1.50
2022-09-05T11:29:04.325Z,1.70
2022-09-05T11:38:47.865Z,1.58
2022-09-05T11:39:50.616Z,1.73
2022-09-05T11:43:57.491Z,1.45
2022-09-05T11:48:29.401Z,1.60
2022-09-05T11:53:04.753Z,1.50
2022-09-05T11:57:34.730Z,1.70
2022-09-05T12:01:44.177Z,1.90
2022-09-05T12:06:09.768Z,1.35
2022-09-05T12:10:46.936Z,1.60
2022-09-05T12:15:24.019Z,1.70
2022-09-05T12:29:27.546Z,1.67
2022-09-05T12:36:01.800Z,1.40
2022-09-05T12:39:30.258Z,1.50
2022-09-05T12:42:08.554Z,1.60
2022-09-05T12:42:08.554Z,1.52
2022-09-05T12:42:13.692Z,1.60
2022-09-05T12:46:23.902Z,1.60
2022-09-05T12:50:40.093Z,1.60
2022-09-05T12:54:47.301Z,1.60
2022-09-05T13:02:56.931Z,1.50
2022-09-05T13:03:28.820Z,1.60
2022-09-05T13:07:39.117Z,1.50
2022-09-05T13:15:03.002Z,1.30
2022-09-05T13:16:14.196Z,1.50
2022-09-05T13:20:27.721Z,1.30
2022-09-05T13:24:35.927Z,1.60
2022-09-05T13:28:48.073Z,1.67
2022-09-05T13:38:11.852Z,1.60
2022-09-05T13:38:29.181Z,1.65
2022-09-05T13:41:49.388Z,1.70
2022-09-05T13:46:07.853Z,1.58
2022-09-05T13:50:21.593Z,1.58
2022-09-05T13:54:34.993Z,2.00
2022-09-05T13:58:41.445Z,1.60
2022-09-05T14:07:46.223Z,1.50
2022-09-05T14:11:56.041Z,1.52
2022-09-05T14:16:01.624Z,1.40
2022-09-05T14:20:06.652Z,1.20
2022-09-05T14:24:14.453Z,1.33
2022-09-05T14:28:21.993Z,1.67
2022-09-05T14:37:55.080Z,1.60
2022-09-05T14:38:01.677Z,1.50
2022-09-05T14:42:09.353Z,1.52
2022-09-05T14:46:33.698Z,1.20
2022-09-05T14:50:56.445Z,1.50
2022-09-05T15:02:53.744Z,1.50
2022-09-05T15:09:04.337Z,1.30
2022-09-05T15:12:51.259Z,1.33
2022-09-05T15:17:00.736Z,1.30
2022-09-05T15:21:33.179Z,1.60
2022-09-05T15:25:46.080Z,1.50
2022-09-05T15:29:54.836Z,1.50
2022-09-05T15:33:56.547Z,1.60
2022-09-05T15:37:58.281Z,1.48
2022-09-05T15:42:13.424Z,1.42
2022-09-05T15:46:21.007Z,1.17
2022-09-05T15:50:22.919Z,1.50
2022-09-05T15:54:37.407Z,1.63
2022-09-05T15:58:53.335Z,1.40
2022-09-05T16:03:07.292Z,1.33
2022-09-05T16:10:40.969Z,1.55
2022-09-05T16:20:43.357Z,1.70
2022-09-05T16:23:19.711Z,1.50
2022-09-05T16:25:05.559Z,1.30
2022-09-05T16:29:15.171Z,1.40
2022-09-05T16:33:23.958Z,1.50
2022-09-05T16:37:30.819Z,1.50
2022-09-05T16:41:40.917Z,1.27
2022-09-05T16:45:46.697Z,1.40
2022-09-05T16:49:58.760Z,1.50
2022-09-05T16:54:10.950Z,1.42
2022-09-05T16:58:18.099Z,1.50
2022-09-05T17:02:27.785Z,1.80
2022-09-05T17:06:49.036Z,1.40
2022-09-05T17:11:03.489Z,1.50
2022-09-05T17:15:13.227Z,1.52
2022-09-05T17:19:19.895Z,1.70
2022-09-05T17:28:24.136Z,3.20
2022-09-05T17:29:49.898Z,1.50
2022-09-05T17:32:19.002Z,1.60
2022-09-05T17:36:36.424Z,1.35
2022-09-05T17:41:18.959Z,1.63
2022-09-05T17:45:25.244Z,1.40
2022-09-05T17:49:40.187Z,1.60
2022-09-05T17:54:26.948Z,1.50
2022-09-05T17:58:49.030Z,1.38
2022-09-05T18:02:53.927Z,1.40
2022-09-05T18:11:36.511Z,1.50
2022-09-05T18:16:10.483Z,1.50
2022-09-05T18:20:20.036Z,1.50
2022-09-05T18:24:39.439Z,1.40
2022-09-05T18:28:51.307Z,1.57
2022-09-05T18:33:53.378Z,1.60
2022-09-05T18:37:53.888Z,2.40
2022-09-05T18:42:09.155Z,1.60
2022-09-05T18:46:23.423Z,1.60
2022-09-05T18:50:29.516Z,1.83
2022-09-05T18:54:34.938Z,1.60
2022-09-05T18:58:51.542Z,1.70
2022-09-05T19:02:59.447Z,1.60
2022-09-05T19:07:08.506Z,1.40
2022-09-05T19:11:27.864Z,1.40
2022-09-05T19:15:33.307Z,1.60
2022-09-05T19:20:31.383Z,1.50
2022-09-05T19:24:44.859Z,1.47
2022-09-05T19:36:55.590Z,1.47
2022-09-05T19:36:57.532Z,1.90
2022-09-05T19:37:48.872Z,1.60
2022-09-05T19:47:50.011Z,1.60
2022-09-05T19:47:50.889Z,1.60
2022-09-05T19:50:38.539Z,1.50
2022-09-05T19:54:40.060Z,1.67
2022-09-05T19:58:43.080Z,1.60
2022-09-05T20:02:51.498Z,1.47
2022-09-05T20:06:53.395Z,1.40
2022-09-05T20:11:00.608Z,1.90
2022-09-05T20:15:19.955Z,1.93
2022-09-05T20:19:28.692Z,1.77
2022-09-05T20:23:32.103Z,1.60
2022-09-05T20:27:34.006Z,1.80
2022-09-05T20:31:39.386Z,1.70
2022-09-05T20:43:12.495Z,1.80
2022-09-05T20:43:16.586Z,1.60
2022-09-05T20:44:36.772Z,1.70
2022-09-05T20:54:08.079Z,1.80
2022-09-05T20:54:21.139Z,1.77
2022-09-05T20:57:29.699Z,1.80
2022-09-05T21:01:32.353Z,2.10
2022-09-05T21:05:36.763Z,2.17
2022-09-05T21:09:51.775Z,1.90
2022-09-05T21:13:54.670Z,1.80
2022-09-05T21:18:02.474Z,1.63
2022-09-05T21:22:07.272Z,1.70
2022-09-05T21:26:23.435Z,1.77
2022-09-05T21:30:31.053Z,1.90
2022-09-05T21:34:35.075Z,2.20
2022-09-05T21:38:40.739Z,2.30
2022-09-05T21:46:34.340Z,2.37
2022-09-05T21:47:41.217Z,2.10
2022-09-05T21:51:26.142Z,2.07
2022-09-05T21:59:32.964Z,2.07
2022-09-05T21:59:56.702Z,2.10
2022-09-05T22:03:58.907Z,1.87
2022-09-05T22:08:00.792Z,2.33
2022-09-05T22:12:17.483Z,2.37
2022-09-05T22:16:28.074Z,2.10
2022-09-05T22:20:29.719Z,2.37
2022-09-05T22:24:34.356Z,2.23
2022-09-05T22:28:37.821Z,2.33
2022-09-05T22:32:39.562Z,2.27
2022-09-05T22:36:41.218Z,2.30
2022-09-05T22:40:42.719Z,2.43
2022-09-05T22:44:45.719Z,2.30
2022-09-05T22:48:47.302Z,2.47
2022-09-05T22:52:48.962Z,2.47
2022-09-05T22:56:50.422Z,2.50
2022-09-05T23:00:53.394Z,2.30
2022-09-05T23:04:54.846Z,2.30
2022-09-05T23:08:56.439Z,2.50
2022-09-05T23:12:58.997Z,2.40
2022-09-05T23:17:02.102Z,2.70
2022-09-05T23:21:04.965Z,2.30
2022-09-05T23:25:06.969Z,2.93
2022-09-05T23:29:09.385Z,2.43
2022-09-05T23:33:12.214Z,3.00
2022-09-05T23:37:13.817Z,2.57
2022-09-05T23:41:16.166Z,2.40
2022-09-05T23:45:18.145Z,2.20
2022-09-05T23:49:21.180Z,2.80
2022-09-05T23:53:23.238Z,2.40
2022-09-05T23:57:24.842Z,2.50
